SHT12U EGLL-EGNT
Flight info
| Callsign | SHT12U |
|---|---|
| Flight time | 0h 44m |
| Altitude | 28000 |
| Route | ULTIB1J ULTIB T420 AKUPA UY250 RIMTO RIMTO2N |
| Aircraft | A320/M-SDE3FGIJ1KRWXY/SB1 |
Departure
| Time | 2026-05-07 13:33 |
|---|---|
| Airport | London Heathrow Airport (EGLL) |
Arrival
| Time | 2026-05-07 14:17 |
|---|---|
| Airport | Newcastle International Airport (EGNT) |
| Time | Latitude | Longitude | Altitude | Speed | Heading |
|---|---|---|---|---|---|
| 2026-05-07 12:51 | 51.47397 | -0.48760 | 90 ft | 0 kts | 179° |
| 2026-05-07 13:25 | 51.47406 | -0.48760 | 87 ft | 4 kts | 179° |
| 2026-05-07 13:25 | 51.47433 | -0.48762 | 88 ft | 4 kts | 173° |
| 2026-05-07 13:25 | 51.47459 | -0.48769 | 88 ft | 4 kts | 162° |
| 2026-05-07 13:26 | 51.47482 | -0.48788 | 88 ft | 4 kts | 121° |
| 2026-05-07 13:26 | 51.47486 | -0.48807 | 87 ft | 1 kts | 90° |
| 2026-05-07 13:26 | 51.47486 | -0.48810 | 87 ft | 0 kts | 90° |
| 2026-05-07 13:29 | 51.47486 | -0.48809 | 87 ft | 0 kts | 90° |
| 2026-05-07 13:29 | 51.47486 | -0.48789 | 88 ft | 3 kts | 90° |
| 2026-05-07 13:29 | 51.47486 | -0.48740 | 74 ft | 5 kts | 90° |
| 2026-05-07 13:29 | 51.47486 | -0.48668 | 88 ft | 7 kts | 90° |
| 2026-05-07 13:30 | 51.47487 | -0.48577 | 88 ft | 9 kts | 89° |
| 2026-05-07 13:30 | 51.47462 | -0.48483 | 90 ft | 11 kts | 154° |
| 2026-05-07 13:30 | 51.47381 | -0.48477 | 87 ft | 12 kts | 180° |
| 2026-05-07 13:30 | 51.47289 | -0.48476 | 87 ft | 14 kts | 179° |
| 2026-05-07 13:31 | 51.47181 | -0.48475 | 87 ft | 16 kts | 180° |
| 2026-05-07 13:31 | 51.47060 | -0.48473 | 87 ft | 18 kts | 179° |
| 2026-05-07 13:31 | 51.46948 | -0.48472 | 87 ft | 16 kts | 179° |
| 2026-05-07 13:31 | 51.46827 | -0.48471 | 88 ft | 18 kts | 179° |
| 2026-05-07 13:32 | 51.46695 | -0.48470 | 87 ft | 19 kts | 180° |
| 2026-05-07 13:32 | 51.46565 | -0.48468 | 88 ft | 14 kts | 181° |
| 2026-05-07 13:32 | 51.46480 | -0.48417 | 89 ft | 15 kts | 110° |
| 2026-05-07 13:32 | 51.46479 | -0.48194 | 88 ft | 40 kts | 90° |
| 2026-05-07 13:33 | 51.46481 | -0.47376 | 86 ft | 103 kts | 89° |
| 2026-05-07 13:33 | 51.46489 | -0.45962 | 86 ft | 149 kts | 89° |
| 2026-05-07 13:33 | 51.46497 | -0.44108 | 200 ft | 176 kts | 89° |
| 2026-05-07 13:33 | 51.46525 | -0.42170 | 898 ft | 173 kts | 82° |
| 2026-05-07 13:34 | 51.46981 | -0.40393 | 1471 ft | 180 kts | 52° |
| 2026-05-07 13:34 | 51.48795 | -0.36958 | 1996 ft | 226 kts | 50° |
| 2026-05-07 13:34 | 51.49861 | -0.34929 | 2368 ft | 250 kts | 50° |
| 2026-05-07 13:35 | 51.51004 | -0.32740 | 3122 ft | 260 kts | 50° |
| 2026-05-07 13:35 | 51.52123 | -0.30423 | 3993 ft | 265 kts | 60° |
| 2026-05-07 13:35 | 51.52813 | -0.27651 | 4827 ft | 270 kts | 71° |
| 2026-05-07 13:35 | 51.53649 | -0.24928 | 5645 ft | 277 kts | 52° |
| 2026-05-07 13:36 | 51.55145 | -0.23022 | 6524 ft | 277 kts | 24° |
| 2026-05-07 13:36 | 51.56990 | -0.22375 | 7384 ft | 277 kts | 357° |
| 2026-05-07 13:36 | 51.58875 | -0.23035 | 8219 ft | 279 kts | 342° |
| 2026-05-07 13:36 | 51.60723 | -0.23800 | 8997 ft | 283 kts | 345° |
| 2026-05-07 13:37 | 51.62592 | -0.24839 | 9787 ft | 287 kts | 333° |
| 2026-05-07 13:37 | 51.64368 | -0.26349 | 10495 ft | 290 kts | 330° |
| 2026-05-07 13:37 | 51.66132 | -0.27965 | 11202 ft | 293 kts | 329° |
| 2026-05-07 13:37 | 51.67897 | -0.29645 | 11914 ft | 296 kts | 328° |
| 2026-05-07 13:38 | 51.69687 | -0.31380 | 12485 ft | 306 kts | 328° |
| 2026-05-07 13:38 | 51.71573 | -0.33224 | 12634 ft | 329 kts | 328° |
| 2026-05-07 13:38 | 51.73593 | -0.35200 | 12783 ft | 349 kts | 328° |
| 2026-05-07 13:38 | 51.75709 | -0.37260 | 13218 ft | 359 kts | 328° |
| 2026-05-07 13:39 | 51.77867 | -0.39347 | 13838 ft | 364 kts | 328° |
| 2026-05-07 13:39 | 51.80052 | -0.41455 | 14403 ft | 367 kts | 328° |
| 2026-05-07 13:39 | 51.82250 | -0.43579 | 14984 ft | 370 kts | 328° |
| 2026-05-07 13:39 | 51.84468 | -0.45726 | 15553 ft | 373 kts | 328° |
| 2026-05-07 13:40 | 51.86697 | -0.47892 | 16111 ft | 375 kts | 328° |
| 2026-05-07 13:40 | 51.88941 | -0.50078 | 16669 ft | 378 kts | 328° |
| 2026-05-07 13:40 | 51.91202 | -0.52281 | 17230 ft | 381 kts | 327° |
| 2026-05-07 13:40 | 51.93484 | -0.54506 | 17794 ft | 384 kts | 327° |
| 2026-05-07 13:41 | 51.95778 | -0.56745 | 18356 ft | 387 kts | 327° |
| 2026-05-07 13:41 | 51.98094 | -0.59011 | 18859 ft | 389 kts | 327° |
| 2026-05-07 13:41 | 52.00420 | -0.61286 | 19363 ft | 392 kts | 327° |
| 2026-05-07 13:41 | 52.02735 | -0.63551 | 19855 ft | 395 kts | 327° |
| 2026-05-07 13:42 | 52.05091 | -0.65860 | 20368 ft | 397 kts | 327° |
| 2026-05-07 13:42 | 52.07468 | -0.68194 | 20839 ft | 400 kts | 327° |
| 2026-05-07 13:42 | 52.09860 | -0.70546 | 21326 ft | 403 kts | 327° |
| 2026-05-07 13:42 | 52.12258 | -0.72904 | 21784 ft | 405 kts | 327° |
| 2026-05-07 13:43 | 52.14682 | -0.75289 | 22227 ft | 408 kts | 327° |
| 2026-05-07 13:43 | 52.17125 | -0.77697 | 22675 ft | 411 kts | 327° |
| 2026-05-07 13:43 | 52.19576 | -0.80117 | 23103 ft | 414 kts | 327° |
| 2026-05-07 13:43 | 52.22041 | -0.82560 | 23535 ft | 416 kts | 327° |
| 2026-05-07 13:44 | 52.24526 | -0.85026 | 23895 ft | 419 kts | 327° |
| 2026-05-07 13:44 | 52.27024 | -0.87507 | 24251 ft | 422 kts | 327° |
| 2026-05-07 13:44 | 52.29540 | -0.90007 | 24603 ft | 425 kts | 327° |
| 2026-05-07 13:44 | 52.32075 | -0.92526 | 24922 ft | 428 kts | 328° |
| 2026-05-07 13:45 | 52.34635 | -0.95072 | 25225 ft | 431 kts | 328° |
| 2026-05-07 13:45 | 52.37199 | -0.97626 | 25601 ft | 433 kts | 328° |
| 2026-05-07 13:45 | 52.39775 | -1.00200 | 25954 ft | 435 kts | 328° |
| 2026-05-07 13:45 | 52.42369 | -1.02795 | 26286 ft | 438 kts | 328° |
| 2026-05-07 13:46 | 52.45006 | -1.05328 | 26599 ft | 440 kts | 333° |
| 2026-05-07 13:46 | 52.47840 | -1.07240 | 26925 ft | 443 kts | 343° |
| 2026-05-07 13:46 | 52.50847 | -1.08382 | 27257 ft | 445 kts | 352° |
| 2026-05-07 13:46 | 52.53943 | -1.08706 | 27584 ft | 446 kts | 2° |
| 2026-05-07 13:47 | 52.57051 | -1.08476 | 27932 ft | 448 kts | 4° |
| 2026-05-07 13:47 | 52.63237 | -1.08007 | 28039 ft | 442 kts | 4° |
| 2026-05-07 13:48 | 52.69449 | -1.07559 | 28041 ft | 455 kts | 4° |
| 2026-05-07 13:48 | 52.75906 | -1.07763 | 28058 ft | 475 kts | 351° |
| 2026-05-07 13:49 | 52.82470 | -1.09743 | 28059 ft | 486 kts | 350° |
| 2026-05-07 13:49 | 52.89146 | -1.11772 | 28056 ft | 488 kts | 350° |
| 2026-05-07 13:50 | 52.95832 | -1.13808 | 28057 ft | 489 kts | 350° |
| 2026-05-07 13:50 | 53.02518 | -1.15857 | 28058 ft | 489 kts | 350° |
| 2026-05-07 13:51 | 53.09206 | -1.17915 | 28056 ft | 489 kts | 350° |
| 2026-05-07 13:51 | 53.15898 | -1.19969 | 28057 ft | 489 kts | 350° |
| 2026-05-07 13:52 | 53.22581 | -1.22035 | 28049 ft | 489 kts | 350° |
| 2026-05-07 13:52 | 53.29263 | -1.24102 | 28049 ft | 489 kts | 350° |
| 2026-05-07 13:53 | 53.35956 | -1.26175 | 28048 ft | 489 kts | 350° |
| 2026-05-07 13:53 | 53.42652 | -1.28113 | 28045 ft | 488 kts | 355° |
| 2026-05-07 13:54 | 53.49420 | -1.28941 | 28042 ft | 488 kts | 356° |
| 2026-05-07 13:54 | 53.55048 | -1.29667 | 28039 ft | 488 kts | 353° |
| 2026-05-07 13:55 | 53.61517 | -1.32988 | 28039 ft | 488 kts | 332° |
| 2026-05-07 13:55 | 53.67345 | -1.38834 | 28038 ft | 488 kts | 328° |
| 2026-05-07 13:56 | 53.73172 | -1.44743 | 28041 ft | 488 kts | 328° |
| 2026-05-07 13:56 | 53.78991 | -1.50648 | 28044 ft | 488 kts | 328° |
| 2026-05-07 13:57 | 53.84777 | -1.56559 | 28049 ft | 489 kts | 328° |
| 2026-05-07 13:57 | 53.87716 | -1.59571 | 27946 ft | 482 kts | 328° |
| 2026-05-07 13:57 | 53.90502 | -1.62429 | 27756 ft | 466 kts | 328° |
| 2026-05-07 13:57 | 53.93247 | -1.65250 | 27304 ft | 457 kts | 328° |
| 2026-05-07 13:58 | 53.95954 | -1.68039 | 26708 ft | 453 kts | 328° |
| 2026-05-07 13:58 | 53.98632 | -1.70807 | 26115 ft | 449 kts | 328° |
| 2026-05-07 13:58 | 54.01279 | -1.73542 | 25328 ft | 441 kts | 327° |
| 2026-05-07 13:58 | 54.03881 | -1.76231 | 24565 ft | 436 kts | 327° |
| 2026-05-07 13:59 | 54.06476 | -1.78917 | 23886 ft | 436 kts | 327° |
| 2026-05-07 13:59 | 54.09058 | -1.81591 | 23238 ft | 433 kts | 327° |
| 2026-05-07 13:59 | 54.11735 | -1.83878 | 22623 ft | 430 kts | 338° |
| 2026-05-07 13:59 | 54.14625 | -1.85163 | 22015 ft | 428 kts | 351° |
| 2026-05-07 14:00 | 54.17575 | -1.85412 | 21492 ft | 423 kts | 3° |
| 2026-05-07 14:00 | 54.20482 | -1.84728 | 20925 ft | 420 kts | 10° |
| 2026-05-07 14:00 | 54.23350 | -1.83827 | 20376 ft | 418 kts | 10° |
| 2026-05-07 14:00 | 54.26203 | -1.82925 | 19845 ft | 414 kts | 10° |
| 2026-05-07 14:01 | 54.28998 | -1.82041 | 19364 ft | 411 kts | 10° |
| 2026-05-07 14:01 | 54.31805 | -1.81156 | 18865 ft | 408 kts | 10° |
| 2026-05-07 14:01 | 54.34587 | -1.80282 | 18370 ft | 405 kts | 10° |
| 2026-05-07 14:01 | 54.37349 | -1.79416 | 17808 ft | 402 kts | 10° |
| 2026-05-07 14:02 | 54.40090 | -1.78553 | 17253 ft | 399 kts | 9° |
| 2026-05-07 14:02 | 54.42807 | -1.77699 | 16692 ft | 396 kts | 9° |
| 2026-05-07 14:02 | 54.45499 | -1.76851 | 16185 ft | 391 kts | 9° |
| 2026-05-07 14:02 | 54.48141 | -1.76015 | 15843 ft | 383 kts | 9° |
| 2026-05-07 14:03 | 54.50741 | -1.75186 | 15411 ft | 377 kts | 9° |
| 2026-05-07 14:03 | 54.53308 | -1.74367 | 14986 ft | 373 kts | 9° |
| 2026-05-07 14:03 | 54.55846 | -1.73555 | 14564 ft | 368 kts | 9° |
| 2026-05-07 14:03 | 54.58348 | -1.72753 | 14150 ft | 364 kts | 9° |
| 2026-05-07 14:04 | 54.60829 | -1.71961 | 13725 ft | 361 kts | 9° |
| 2026-05-07 14:04 | 54.63285 | -1.71178 | 13268 ft | 357 kts | 9° |
| 2026-05-07 14:04 | 54.65703 | -1.70403 | 12808 ft | 348 kts | 9° |
| 2026-05-07 14:04 | 54.68007 | -1.69662 | 12367 ft | 335 kts | 9° |
| 2026-05-07 14:05 | 54.70261 | -1.69003 | 11923 ft | 322 kts | 3° |
| 2026-05-07 14:05 | 54.72454 | -1.68705 | 11487 ft | 312 kts | 2° |
| 2026-05-07 14:05 | 54.74595 | -1.68420 | 11057 ft | 304 kts | 2° |
| 2026-05-07 14:05 | 54.76680 | -1.68140 | 10626 ft | 297 kts | 2° |
| 2026-05-07 14:06 | 54.78717 | -1.67864 | 10208 ft | 291 kts | 2° |
| 2026-05-07 14:06 | 54.80721 | -1.67592 | 9788 ft | 285 kts | 2° |
| 2026-05-07 14:06 | 54.82680 | -1.67329 | 9330 ft | 281 kts | 1° |
| 2026-05-07 14:06 | 54.84611 | -1.67068 | 8875 ft | 276 kts | 1° |
| 2026-05-07 14:07 | 54.86510 | -1.66810 | 8427 ft | 272 kts | 2° |
| 2026-05-07 14:07 | 54.88381 | -1.66555 | 7985 ft | 268 kts | 2° |
| 2026-05-07 14:07 | 54.90204 | -1.66305 | 7553 ft | 265 kts | 1° |
| 2026-05-07 14:07 | 54.92026 | -1.66054 | 7176 ft | 260 kts | 2° |
| 2026-05-07 14:08 | 54.93815 | -1.65807 | 6797 ft | 255 kts | 1° |
| 2026-05-07 14:08 | 54.95573 | -1.65566 | 6423 ft | 251 kts | 1° |
| 2026-05-07 14:08 | 54.97314 | -1.65328 | 6035 ft | 252 kts | 1° |
| 2026-05-07 14:08 | 54.99074 | -1.65088 | 5701 ft | 255 kts | 2° |
| 2026-05-07 14:09 | 55.00840 | -1.64846 | 5437 ft | 254 kts | 1° |
| 2026-05-07 14:09 | 55.02587 | -1.64604 | 5190 ft | 251 kts | 2° |
| 2026-05-07 14:09 | 55.04235 | -1.63710 | 4934 ft | 252 kts | 34° |
| 2026-05-07 14:09 | 55.05308 | -1.61369 | 4662 ft | 248 kts | 72° |
| 2026-05-07 14:10 | 55.05681 | -1.58471 | 4409 ft | 244 kts | 82° |
| 2026-05-07 14:10 | 55.05983 | -1.55577 | 4226 ft | 239 kts | 82° |
| 2026-05-07 14:10 | 55.06274 | -1.52762 | 4066 ft | 233 kts | 82° |
| 2026-05-07 14:10 | 55.06558 | -1.50010 | 3912 ft | 228 kts | 82° |
| 2026-05-07 14:11 | 55.06838 | -1.47324 | 3744 ft | 221 kts | 83° |
| 2026-05-07 14:11 | 55.07115 | -1.44713 | 3600 ft | 215 kts | 82° |
| 2026-05-07 14:11 | 55.07386 | -1.42167 | 3453 ft | 212 kts | 83° |
| 2026-05-07 14:11 | 55.07653 | -1.39653 | 3306 ft | 210 kts | 82° |
| 2026-05-07 14:12 | 55.07981 | -1.37173 | 3144 ft | 211 kts | 68° |
| 2026-05-07 14:12 | 55.08965 | -1.35367 | 2992 ft | 213 kts | 22° |
| 2026-05-07 14:12 | 55.10387 | -1.35150 | 2833 ft | 205 kts | 338° |
| 2026-05-07 14:12 | 55.11502 | -1.36539 | 2784 ft | 196 kts | 298° |
| 2026-05-07 14:13 | 55.11879 | -1.38728 | 2739 ft | 187 kts | 262° |
| 2026-05-07 14:13 | 55.11446 | -1.40789 | 2701 ft | 181 kts | 229° |
| 2026-05-07 14:13 | 55.10673 | -1.42541 | 2654 ft | 183 kts | 236° |
| 2026-05-07 14:13 | 55.10138 | -1.44563 | 2614 ft | 185 kts | 245° |
| 2026-05-07 14:14 | 55.09653 | -1.46645 | 2507 ft | 185 kts | 244° |
| 2026-05-07 14:14 | 55.09146 | -1.48658 | 2389 ft | 174 kts | 243° |
| 2026-05-07 14:14 | 55.08666 | -1.50509 | 2216 ft | 161 kts | 242° |
| 2026-05-07 14:14 | 55.08227 | -1.52187 | 2166 ft | 145 kts | 242° |
| 2026-05-07 14:15 | 55.07814 | -1.53757 | 2009 ft | 140 kts | 241° |
| 2026-05-07 14:15 | 55.07413 | -1.55279 | 1834 ft | 137 kts | 242° |
| 2026-05-07 14:15 | 55.07015 | -1.56786 | 1655 ft | 136 kts | 241° |
| 2026-05-07 14:15 | 55.06617 | -1.58294 | 1466 ft | 136 kts | 240° |
| 2026-05-07 14:16 | 55.06220 | -1.59799 | 1274 ft | 137 kts | 241° |
| 2026-05-07 14:16 | 55.05822 | -1.61300 | 1081 ft | 136 kts | 241° |
| 2026-05-07 14:16 | 55.05434 | -1.62802 | 865 ft | 139 kts | 241° |
| 2026-05-07 14:16 | 55.05038 | -1.64348 | 668 ft | 139 kts | 239° |
| 2026-05-07 14:17 | 55.04619 | -1.65860 | 488 ft | 140 kts | 242° |
| 2026-05-07 14:17 | 55.04218 | -1.67388 | 312 ft | 138 kts | 240° |
| 2026-05-07 14:17 | 55.03837 | -1.68795 | 251 ft | 112 kts | 245° |
| 2026-05-07 14:17 | 55.03638 | -1.69556 | 258 ft | 32 kts | 245° |
| 2026-05-07 14:18 | 55.03580 | -1.69831 | 260 ft | 22 kts | 265° |
| 2026-05-07 14:18 | 55.03587 | -1.70043 | 262 ft | 15 kts | 275° |
| 2026-05-07 14:18 | 55.03595 | -1.70206 | 265 ft | 13 kts | 274° |
| 2026-05-07 14:18 | 55.03601 | -1.70362 | 267 ft | 13 kts | 271° |
| 2026-05-07 14:19 | 55.03593 | -1.70531 | 267 ft | 15 kts | 264° |
| 2026-05-07 14:19 | 55.03594 | -1.70717 | 267 ft | 12 kts | 275° |
| 2026-05-07 14:19 | 55.03601 | -1.70827 | 267 ft | 4 kts | 290° |
| 2026-05-07 14:19 | 55.03629 | -1.70849 | 267 ft | 5 kts | 354° |
| 2026-05-07 14:20 | 55.03654 | -1.70847 | 267 ft | 2 kts | 4° |
| 2026-05-07 14:20 | 55.03663 | -1.70846 | 267 ft | 1 kts | 4° |
| 2026-05-07 14:20 | 55.03668 | -1.70845 | 267 ft | 1 kts | 4° |
| 2026-05-07 14:20 | 55.03670 | -1.70845 | 267 ft | 0 kts | 4° |